Latest  Newer  Older  Last 2 hours animation  Current image  Latest image 
Rain/snow radar  Infrared sat images 
Real-time lightning map

All time is UTC (add 2 hours to UTC in wintertime, 3 hours to UTC in DST for Latvia local time)

2019/04/20 10:50 EVRA 201050Z 32010KT 280V350 CAVOK 09/03 Q1029 NOSIG
2019/04/20 10:50 EVLA 201050Z AUTO 32006KT 300V360 9999 FEW100/// 11/05 Q1030
2019/04/20 10:50 EVVA 201050Z AUTO 34008KT CAVOK 10/05 Q1031
2019/04/20 10:50 EYKA 201050Z 35008KT 310V050 CAVOK 16/M01 Q1027
2019/04/20 10:50 EYPA 201050Z 33005KT 240V020 CAVOK 09/04 Q1030
2019/04/20 10:50 EYSA 201050Z 33012KT 300V010 CAVOK 14/03 Q1028 BLU NOSIG
2019/04/20 10:50 EYVI 201050Z 36008KT 310V040 CAVOK 15/M02 Q1026 NOSIG
2019/04/20 07:50 EEKA 200750Z 36006KT 9999 BKN043 08/04 Q1031
2019/04/20 09:50 EEKE 200950Z 36013KT 9999 FEW020 11/03 Q1030
2019/04/20 09:50 EEPU 200950Z 01009KT 340V060 CAVOK 14/M03 Q1028
2019/04/20 10:50 EETN 201050Z 32009KT CAVOK 11/00 Q1029 NOSIG
2019/04/20 09:50 EETU 200950Z AUTO 02009KT 350V060 9999 NCD 13/M03 Q1027
   RIGA AIRPORT     EVRA               56 55N  023 58E   10   X     T          6 LV
   LIEPAJA INTL     EVLA        26406  56 31N  021 06E    4   X                8 LV
   VENTPILS         EVVA               57 21N  021 33E    6   X                8 LV
   KAUNAS           EYKA               54 54N  023 55E   77   X     T          6 LT
   PALANGA INTL     EYPA               55 55N  021 03E   10   X                6 LT
   SIAULIAI INTL    EYSA               55 54N  023 24E  135   X     T          6 LT
   VILNIUS INTL     EYVI        26730  54 38N  025 17E  197   X     T          6 LT
   KARDLA           EEKA        26116  58 59N  022 50E    4   X                8 EE
   KURESSAARE       EEKE               58 14N  022 31E    4   X                8 EE
   PARNU            EEPU               58 25N  024 28E   14   X                8 EE
   TALLINN          EETN        26038  59 24N  024 49E   40   X     T          8 EE
   TARTU            EETU               58 19N  026 41E   67   X                8 EE

cloud coverage image from sat24.com and METAR data from weather.noaa.gov